sensor_id;sensor_type;location;lat;lon;timestamp;temperature;humidity
70826;SHT31;58446;41.490;22.098;2023-06-22T00:01:50;25.58;62.86
70826;SHT31;58446;41.490;22.098;2023-06-22T00:04:15;25.58;62.87
70826;SHT31;58446;41.490;22.098;2023-06-22T00:06:41;25.49;63.06
70826;SHT31;58446;41.490;22.098;2023-06-22T00:09:06;25.42;63.24
70826;SHT31;58446;41.490;22.098;2023-06-22T00:11:33;25.27;63.73
70826;SHT31;58446;41.490;22.098;2023-06-22T00:13:59;25.22;63.65
70826;SHT31;58446;41.490;22.098;2023-06-22T00:16:25;25.29;63.25
70826;SHT31;58446;41.490;22.098;2023-06-22T00:18:51;25.43;62.88
70826;SHT31;58446;41.490;22.098;2023-06-22T00:21:16;25.29;62.48
70826;SHT31;58446;41.490;22.098;2023-06-22T00:23:42;25.38;62.61
70826;SHT31;58446;41.490;22.098;2023-06-22T00:26:08;25.38;62.68
70826;SHT31;58446;41.490;22.098;2023-06-22T00:28:34;25.35;62.72
70826;SHT31;58446;41.490;22.098;2023-06-22T00:30:59;25.19;62.78
70826;SHT31;58446;41.490;22.098;2023-06-22T00:33:26;24.95;62.46
70826;SHT31;58446;41.490;22.098;2023-06-22T00:35:53;24.84;61.95
70826;SHT31;58446;41.490;22.098;2023-06-22T00:38:19;24.88;62.73
70826;SHT31;58446;41.490;22.098;2023-06-22T00:40:45;24.74;61.74
70826;SHT31;58446;41.490;22.098;2023-06-22T00:43:11;24.22;63.26
70826;SHT31;58446;41.490;22.098;2023-06-22T00:45:36;24.19;63.97
70826;SHT31;58446;41.490;22.098;2023-06-22T00:48:02;24.06;64.14
70826;SHT31;58446;41.490;22.098;2023-06-22T00:50:31;24.01;64.24
70826;SHT31;58446;41.490;22.098;2023-06-22T00:53:06;24.30;64.19
70826;SHT31;58446;41.490;22.098;2023-06-22T00:55:44;24.53;63.62
70826;SHT31;58446;41.490;22.098;2023-06-22T00:58:17;24.87;62.68
70826;SHT31;58446;41.490;22.098;2023-06-22T01:00:47;25.15;61.99
70826;SHT31;58446;41.490;22.098;2023-06-22T01:03:13;25.28;61.65
70826;SHT31;58446;41.490;22.098;2023-06-22T01:05:40;25.18;62.10
70826;SHT31;58446;41.490;22.098;2023-06-22T01:11:07;25.15;62.62
70826;SHT31;58446;41.490;22.098;2023-06-22T01:16:21;25.28;62.73
70826;SHT31;58446;41.490;22.098;2023-06-22T01:18:51;25.34;62.68
70826;SHT31;58446;41.490;22.098;2023-06-22T01:21:19;25.11;63.17
70826;SHT31;58446;41.490;22.098;2023-06-22T01:26:22;24.92;63.58
70826;SHT31;58446;41.490;22.098;2023-06-22T01:28:55;25.08;63.11
70826;SHT31;58446;41.490;22.098;2023-06-22T01:31:23;24.94;63.56
70826;SHT31;58446;41.490;22.098;2023-06-22T01:33:55;24.81;63.90
70826;SHT31;58446;41.490;22.098;2023-06-22T01:36:23;24.73;64.02
70826;SHT31;58446;41.490;22.098;2023-06-22T01:38:49;24.87;63.79
70826;SHT31;58446;41.490;22.098;2023-06-22T01:41:37;24.74;64.25
70826;SHT31;58446;41.490;22.098;2023-06-22T01:44:05;24.66;64.30
70826;SHT31;58446;41.490;22.098;2023-06-22T01:46:33;24.68;64.19
70826;SHT31;58446;41.490;22.098;2023-06-22T01:48:59;24.53;64.72
70826;SHT31;58446;41.490;22.098;2023-06-22T01:51:26;24.39;65.03
70826;SHT31;58446;41.490;22.098;2023-06-22T01:53:51;24.13;65.64
70826;SHT31;58446;41.490;22.098;2023-06-22T01:56:17;24.22;65.76
70826;SHT31;58446;41.490;22.098;2023-06-22T01:59:00;24.22;65.59
70826;SHT31;58446;41.490;22.098;2023-06-22T02:01:33;24.36;65.04
70826;SHT31;58446;41.490;22.098;2023-06-22T02:04:07;24.47;64.68
70826;SHT31;58446;41.490;22.098;2023-06-22T02:06:37;24.43;64.73
70826;SHT31;58446;41.490;22.098;2023-06-22T02:09:07;24.60;64.17
70826;SHT31;58446;41.490;22.098;2023-06-22T02:11:35;24.76;63.66
70826;SHT31;58446;41.490;22.098;2023-06-22T02:14:02;24.47;64.46
70826;SHT31;58446;41.490;22.098;2023-06-22T02:16:28;24.30;64.69
70826;SHT31;58446;41.490;22.098;2023-06-22T02:18:56;24.16;65.22
70826;SHT31;58446;41.490;22.098;2023-06-22T02:21:29;24.44;64.47
70826;SHT31;58446;41.490;22.098;2023-06-22T02:23:56;24.33;64.84
70826;SHT31;58446;41.490;22.098;2023-06-22T02:26:22;24.33;64.84
70826;SHT31;58446;41.490;22.098;2023-06-22T02:28:49;24.28;64.83
70826;SHT31;58446;41.490;22.098;2023-06-22T02:31:14;24.29;65.13
70826;SHT31;58446;41.490;22.098;2023-06-22T02:33:40;24.29;64.79
70826;SHT31;58446;41.490;22.098;2023-06-22T02:36:06;24.09;66.05
70826;SHT31;58446;41.490;22.098;2023-06-22T02:38:35;24.29;65.01
70826;SHT31;58446;41.490;22.098;2023-06-22T02:41:02;24.40;64.73
70826;SHT31;58446;41.490;22.098;2023-06-22T02:43:27;24.46;64.53
70826;SHT31;58446;41.490;22.098;2023-06-22T02:45:53;24.44;64.64
70826;SHT31;58446;41.490;22.098;2023-06-22T02:48:19;24.46;64.50
70826;SHT31;58446;41.490;22.098;2023-06-22T02:50:44;24.44;64.63
70826;SHT31;58446;41.490;22.098;2023-06-22T02:53:10;24.47;64.53
70826;SHT31;58446;41.490;22.098;2023-06-22T02:55:36;24.26;65.25
70826;SHT31;58446;41.490;22.098;2023-06-22T02:58:02;24.22;65.16
70826;SHT31;58446;41.490;22.098;2023-06-22T03:00:31;24.39;64.60
70826;SHT31;58446;41.490;22.098;2023-06-22T03:02:57;24.59;63.99
70826;SHT31;58446;41.490;22.098;2023-06-22T03:05:23;24.49;64.27
70826;SHT31;58446;41.490;22.098;2023-06-22T03:07:49;24.44;64.33
70826;SHT31;58446;41.490;22.098;2023-06-22T03:10:16;24.63;63.93
70826;SHT31;58446;41.490;22.098;2023-06-22T03:12:42;24.61;63.96
70826;SHT31;58446;41.490;22.098;2023-06-22T03:15:10;24.70;63.70
70826;SHT31;58446;41.490;22.098;2023-06-22T03:17:37;24.52;64.09
70826;SHT31;58446;41.490;22.098;2023-06-22T03:20:07;24.37;64.52
70826;SHT31;58446;41.490;22.098;2023-06-22T03:22:40;24.36;64.45
70826;SHT31;58446;41.490;22.098;2023-06-22T03:25:07;24.36;64.17
70826;SHT31;58446;41.490;22.098;2023-06-22T03:27:38;24.39;64.07
70826;SHT31;58446;41.490;22.098;2023-06-22T03:30:05;23.89;65.57
70826;SHT31;58446;41.490;22.098;2023-06-22T03:32:31;24.05;65.08
70826;SHT31;58446;41.490;22.098;2023-06-22T03:34:56;24.02;65.19
70826;SHT31;58446;41.490;22.098;2023-06-22T03:37:27;23.86;65.83
70826;SHT31;58446;41.490;22.098;2023-06-22T03:39:53;23.84;65.98
70826;SHT31;58446;41.490;22.098;2023-06-22T03:42:19;24.02;65.51
70826;SHT31;58446;41.490;22.098;2023-06-22T03:44:45;24.16;65.12
70826;SHT31;58446;41.490;22.098;2023-06-22T03:47:12;24.25;64.98
70826;SHT31;58446;41.490;22.098;2023-06-22T03:49:37;24.28;64.91
70826;SHT31;58446;41.490;22.098;2023-06-22T03:52:03;24.23;64.95
70826;SHT31;58446;41.490;22.098;2023-06-22T03:54:30;24.29;64.89
70826;SHT31;58446;41.490;22.098;2023-06-22T03:56:57;24.09;65.70
70826;SHT31;58446;41.490;22.098;2023-06-22T03:59:23;24.22;65.43
70826;SHT31;58446;41.490;22.098;2023-06-22T04:01:49;24.33;64.93
70826;SHT31;58446;41.490;22.098;2023-06-22T04:04:15;24.16;65.52
70826;SHT31;58446;41.490;22.098;2023-06-22T04:06:40;24.20;65.30
70826;SHT31;58446;41.490;22.098;2023-06-22T04:09:06;24.29;65.25
70826;SHT31;58446;41.490;22.098;2023-06-22T04:11:32;24.41;64.54
70826;SHT31;58446;41.490;22.098;2023-06-22T04:13:57;24.52;64.42
70826;SHT31;58446;41.490;22.098;2023-06-22T04:16:23;24.33;65.32
70826;SHT31;58446;41.490;22.098;2023-06-22T04:18:48;24.28;65.23
70826;SHT31;58446;41.490;22.098;2023-06-22T04:21:14;24.35;65.11
70826;SHT31;58446;41.490;22.098;2023-06-22T04:23:40;24.30;65.92
70826;SHT31;58446;41.490;22.098;2023-06-22T04:26:05;24.35;65.75
70826;SHT31;58446;41.490;22.098;2023-06-22T04:28:31;24.10;65.74
70826;SHT31;58446;41.490;22.098;2023-06-22T04:31:03;23.85;66.45
70826;SHT31;58446;41.490;22.098;2023-06-22T04:33:30;23.89;67.13
70826;SHT31;58446;41.490;22.098;2023-06-22T04:35:56;24.04;66.76
70826;SHT31;58446;41.490;22.098;2023-06-22T04:38:29;24.29;66.01
70826;SHT31;58446;41.490;22.098;2023-06-22T04:40:57;24.52;65.57
70826;SHT31;58446;41.490;22.098;2023-06-22T04:43:22;24.46;65.88
70826;SHT31;58446;41.490;22.098;2023-06-22T04:45:48;24.55;64.68
70826;SHT31;58446;41.490;22.098;2023-06-22T04:48:17;24.52;65.22
70826;SHT31;58446;41.490;22.098;2023-06-22T04:50:43;24.74;64.74
70826;SHT31;58446;41.490;22.098;2023-06-22T04:53:09;24.86;64.32
70826;SHT31;58446;41.490;22.098;2023-06-22T04:55:38;25.14;63.67
70826;SHT31;58446;41.490;22.098;2023-06-22T04:58:07;25.41;63.61
70826;SHT31;58446;41.490;22.098;2023-06-22T05:00:33;25.50;62.44
70826;SHT31;58446;41.490;22.098;2023-06-22T05:03:01;25.59;62.79
70826;SHT31;58446;41.490;22.098;2023-06-22T05:05:29;25.78;62.80
70826;SHT31;58446;41.490;22.098;2023-06-22T05:07:56;25.89;61.82
70826;SHT31;58446;41.490;22.098;2023-06-22T05:10:25;25.90;61.84
70826;SHT31;58446;41.490;22.098;2023-06-22T05:12:51;25.94;61.90
70826;SHT31;58446;41.490;22.098;2023-06-22T05:15:17;26.17;62.62
70826;SHT31;58446;41.490;22.098;2023-06-22T05:17:45;26.10;63.31
70826;SHT31;58446;41.490;22.098;2023-06-22T05:20:11;26.09;61.54
70826;SHT31;58446;41.490;22.098;2023-06-22T05:22:41;26.10;61.41
70826;SHT31;58446;41.490;22.098;2023-06-22T05:25:09;26.21;61.19
70826;SHT31;58446;41.490;22.098;2023-06-22T05:27:35;26.26;61.78
70826;SHT31;58446;41.490;22.098;2023-06-22T05:30:06;26.20;60.75
70826;SHT31;58446;41.490;22.098;2023-06-22T05:32:32;26.31;60.29
70826;SHT31;58446;41.490;22.098;2023-06-22T05:34:59;26.40;59.30
70826;SHT31;58446;41.490;22.098;2023-06-22T05:37:24;26.34;59.64
70826;SHT31;58446;41.490;22.098;2023-06-22T05:39:50;26.51;60.55
70826;SHT31;58446;41.490;22.098;2023-06-22T05:42:16;26.68;60.73
70826;SHT31;58446;41.490;22.098;2023-06-22T05:44:41;26.85;61.77
70826;SHT31;58446;41.490;22.098;2023-06-22T05:47:07;26.89;59.39
70826;SHT31;58446;41.490;22.098;2023-06-22T05:49:33;27.13;57.82
70826;SHT31;58446;41.490;22.098;2023-06-22T05:51:59;27.23;57.01
70826;SHT31;58446;41.490;22.098;2023-06-22T05:54:27;27.45;58.01
70826;SHT31;58446;41.490;22.098;2023-06-22T05:56:52;27.64;57.55
70826;SHT31;58446;41.490;22.098;2023-06-22T05:59:19;27.74;57.66
70826;SHT31;58446;41.490;22.098;2023-06-22T06:01:45;27.98;56.49
70826;SHT31;58446;41.490;22.098;2023-06-22T06:04:18;28.18;56.54
70826;SHT31;58446;41.490;22.098;2023-06-22T06:06:44;28.27;55.89
70826;SHT31;58446;41.490;22.098;2023-06-22T06:09:14;28.38;57.31
70826;SHT31;58446;41.490;22.098;2023-06-22T06:11:40;28.52;55.79
70826;SHT31;58446;41.490;22.098;2023-06-22T06:14:06;28.56;54.09
70826;SHT31;58446;41.490;22.098;2023-06-22T06:16:32;28.56;54.78
70826;SHT31;58446;41.490;22.098;2023-06-22T06:18:57;28.41;55.18
70826;SHT31;58446;41.490;22.098;2023-06-22T06:21:23;28.39;56.55
70826;SHT31;58446;41.490;22.098;2023-06-22T06:23:49;28.42;56.12
70826;SHT31;58446;41.490;22.098;2023-06-22T06:26:15;28.63;54.97
70826;SHT31;58446;41.490;22.098;2023-06-22T06:28:45;28.80;55.81
70826;SHT31;58446;41.490;22.098;2023-06-22T06:31:11;28.77;54.44
70826;SHT31;58446;41.490;22.098;2023-06-22T06:33:37;28.70;55.03
70826;SHT31;58446;41.490;22.098;2023-06-22T06:36:03;28.80;55.14
70826;SHT31;58446;41.490;22.098;2023-06-22T06:38:32;28.84;55.36
70826;SHT31;58446;41.490;22.098;2023-06-22T06:40:58;29.02;54.66
70826;SHT31;58446;41.490;22.098;2023-06-22T06:43:24;29.16;56.19
70826;SHT31;58446;41.490;22.098;2023-06-22T06:45:50;29.21;54.27
70826;SHT31;58446;41.490;22.098;2023-06-22T06:48:16;29.27;53.96
70826;SHT31;58446;41.490;22.098;2023-06-22T06:50:43;29.26;54.00
70826;SHT31;58446;41.490;22.098;2023-06-22T06:53:09;29.24;53.90
70826;SHT31;58446;41.490;22.098;2023-06-22T06:55:35;29.17;54.48
70826;SHT31;58446;41.490;22.098;2023-06-22T06:58:02;29.31;56.59
70826;SHT31;58446;41.490;22.098;2023-06-22T07:00:33;29.44;53.76
70826;SHT31;58446;41.490;22.098;2023-06-22T07:02:58;29.55;53.00
70826;SHT31;58446;41.490;22.098;2023-06-22T07:05:24;29.61;54.09
70826;SHT31;58446;41.490;22.098;2023-06-22T07:07:49;29.77;54.10
70826;SHT31;58446;41.490;22.098;2023-06-22T07:10:15;29.62;53.23
70826;SHT31;58446;41.490;22.098;2023-06-22T07:12:41;29.53;52.65
70826;SHT31;58446;41.490;22.098;2023-06-22T07:15:08;29.59;52.32
70826;SHT31;58446;41.490;22.098;2023-06-22T07:17:34;29.51;53.29
70826;SHT31;58446;41.490;22.098;2023-06-22T07:20:01;29.44;51.68
70826;SHT31;58446;41.490;22.098;2023-06-22T07:22:27;29.46;52.49
70826;SHT31;58446;41.490;22.098;2023-06-22T07:24:53;29.65;54.00
70826;SHT31;58446;41.490;22.098;2023-06-22T07:27:18;29.85;55.25
70826;SHT31;58446;41.490;22.098;2023-06-22T07:29:45;30.13;55.32
70826;SHT31;58446;41.490;22.098;2023-06-22T07:32:11;30.35;55.30
70826;SHT31;58446;41.490;22.098;2023-06-22T07:34:37;30.56;53.02
70826;SHT31;58446;41.490;22.098;2023-06-22T07:37:02;30.64;51.47
70826;SHT31;58446;41.490;22.098;2023-06-22T07:39:29;30.73;50.75
70826;SHT31;58446;41.490;22.098;2023-06-22T07:41:55;30.53;52.66
70826;SHT31;58446;41.490;22.098;2023-06-22T07:44:21;30.64;54.49
70826;SHT31;58446;41.490;22.098;2023-06-22T07:46:46;30.68;53.33
70826;SHT31;58446;41.490;22.098;2023-06-22T07:49:12;30.87;52.60
70826;SHT31;58446;41.490;22.098;2023-06-22T07:51:38;31.08;51.73
70826;SHT31;58446;41.490;22.098;2023-06-22T07:54:03;31.18;51.10
70826;SHT31;58446;41.490;22.098;2023-06-22T07:56:29;31.19;50.35
70826;SHT31;58446;41.490;22.098;2023-06-22T07:58:55;31.32;51.62
70826;SHT31;58446;41.490;22.098;2023-06-22T08:01:23;30.98;52.26
70826;SHT31;58446;41.490;22.098;2023-06-22T08:03:49;31.05;53.18
70826;SHT31;58446;41.490;22.098;2023-06-22T08:06:15;31.21;53.04
70826;SHT31;58446;41.490;22.098;2023-06-22T08:08:41;31.34;51.23
70826;SHT31;58446;41.490;22.098;2023-06-22T08:11:08;31.41;50.55
70826;SHT31;58446;41.490;22.098;2023-06-22T08:13:34;31.34;51.99
70826;SHT31;58446;41.490;22.098;2023-06-22T08:15:59;31.35;50.37
70826;SHT31;58446;41.490;22.098;2023-06-22T08:18:25;31.10;50.42
70826;SHT31;58446;41.490;22.098;2023-06-22T08:20:51;30.84;53.09
70826;SHT31;58446;41.490;22.098;2023-06-22T08:23:17;30.98;51.42
70826;SHT31;58446;41.490;22.098;2023-06-22T08:25:42;31.10;53.75
70826;SHT31;58446;41.490;22.098;2023-06-22T08:28:08;31.22;52.64
70826;SHT31;58446;41.490;22.098;2023-06-22T08:30:34;31.42;51.93
70826;SHT31;58446;41.490;22.098;2023-06-22T08:32:59;31.59;51.90
70826;SHT31;58446;41.490;22.098;2023-06-22T08:35:25;31.66;50.75
70826;SHT31;58446;41.490;22.098;2023-06-22T08:37:51;31.70;52.03
70826;SHT31;58446;41.490;22.098;2023-06-22T08:40:22;31.58;50.95
70826;SHT31;58446;41.490;22.098;2023-06-22T08:42:48;31.72;51.43
70826;SHT31;58446;41.490;22.098;2023-06-22T08:45:14;31.79;51.78
70826;SHT31;58446;41.490;22.098;2023-06-22T08:47:41;31.92;52.54
70826;SHT31;58446;41.490;22.098;2023-06-22T08:50:08;31.69;49.61
70826;SHT31;58446;41.490;22.098;2023-06-22T08:52:34;31.55;51.74
70826;SHT31;58446;41.490;22.098;2023-06-22T08:55:00;31.55;48.30
70826;SHT31;58446;41.490;22.098;2023-06-22T08:57:29;31.48;48.50
70826;SHT31;58446;41.490;22.098;2023-06-22T08:59:55;31.55;50.64
70826;SHT31;58446;41.490;22.098;2023-06-22T09:02:24;31.70;51.06
70826;SHT31;58446;41.490;22.098;2023-06-22T09:04:50;31.86;50.85
70826;SHT31;58446;41.490;22.098;2023-06-22T09:07:21;32.05;50.98
70826;SHT31;58446;41.490;22.098;2023-06-22T09:09:49;32.16;48.95
70826;SHT31;58446;41.490;22.098;2023-06-22T09:12:14;32.07;48.57
70826;SHT31;58446;41.490;22.098;2023-06-22T09:14:40;32.13;50.29
70826;SHT31;58446;41.490;22.098;2023-06-22T09:17:05;32.20;49.03
70826;SHT31;58446;41.490;22.098;2023-06-22T09:19:31;32.24;50.63
70826;SHT31;58446;41.490;22.098;2023-06-22T09:21:57;32.37;50.44
70826;SHT31;58446;41.490;22.098;2023-06-22T09:24:22;32.43;51.30
70826;SHT31;58446;41.490;22.098;2023-06-22T09:26:48;32.54;48.04
70826;SHT31;58446;41.490;22.098;2023-06-22T09:29:14;32.63;48.53
70826;SHT31;58446;41.490;22.098;2023-06-22T09:31:39;32.70;47.53
70826;SHT31;58446;41.490;22.098;2023-06-22T09:34:05;32.71;47.47
70826;SHT31;58446;41.490;22.098;2023-06-22T09:36:30;32.63;49.63
70826;SHT31;58446;41.490;22.098;2023-06-22T09:38:56;32.51;47.80
70826;SHT31;58446;41.490;22.098;2023-06-22T09:41:24;32.58;47.44
70826;SHT31;58446;41.490;22.098;2023-06-22T09:43:50;32.60;46.81
70826;SHT31;58446;41.490;22.098;2023-06-22T09:46:16;32.71;48.58
70826;SHT31;58446;41.490;22.098;2023-06-22T09:48:42;32.79;45.81
70826;SHT31;58446;41.490;22.098;2023-06-22T09:51:08;32.67;44.64
70826;SHT31;58446;41.490;22.098;2023-06-22T09:53:34;32.47;44.83
70826;SHT31;58446;41.490;22.098;2023-06-22T09:56:03;32.27;45.78
70826;SHT31;58446;41.490;22.098;2023-06-22T09:58:29;32.12;45.75
70826;SHT31;58446;41.490;22.098;2023-06-22T10:00:54;32.03;46.11
70826;SHT31;58446;41.490;22.098;2023-06-22T10:03:20;31.93;46.25
70826;SHT31;58446;41.490;22.098;2023-06-22T10:05:46;31.89;48.37
70826;SHT31;58446;41.490;22.098;2023-06-22T10:08:12;31.97;49.28
70826;SHT31;58446;41.490;22.098;2023-06-22T10:10:38;31.97;46.66
70826;SHT31;58446;41.490;22.098;2023-06-22T10:13:08;31.98;46.01
70826;SHT31;58446;41.490;22.098;2023-06-22T10:15:35;32.13;47.15
70826;SHT31;58446;41.490;22.098;2023-06-22T10:18:01;32.30;49.94
70826;SHT31;58446;41.490;22.098;2023-06-22T10:20:27;32.41;47.29
70826;SHT31;58446;41.490;22.098;2023-06-22T10:22:53;32.53;46.36
70826;SHT31;58446;41.490;22.098;2023-06-22T10:25:19;32.34;47.24
70826;SHT31;58446;41.490;22.098;2023-06-22T10:27:45;32.16;48.84
70826;SHT31;58446;41.490;22.098;2023-06-22T10:30:11;32.36;48.20
70826;SHT31;58446;41.490;22.098;2023-06-22T10:32:38;32.13;46.48
70826;SHT31;58446;41.490;22.098;2023-06-22T10:35:04;32.31;45.83
70826;SHT31;58446;41.490;22.098;2023-06-22T10:37:30;32.51;47.85
70826;SHT31;58446;41.490;22.098;2023-06-22T10:39:56;32.54;46.16
70826;SHT31;58446;41.490;22.098;2023-06-22T10:42:21;32.58;46.12
70826;SHT31;58446;41.490;22.098;2023-06-22T10:44:47;32.67;45.79
70826;SHT31;58446;41.490;22.098;2023-06-22T10:47:13;32.75;46.96
70826;SHT31;58446;41.490;22.098;2023-06-22T10:49:39;32.86;45.01
70826;SHT31;58446;41.490;22.098;2023-06-22T10:52:06;32.81;45.26
70826;SHT31;58446;41.490;22.098;2023-06-22T10:54:33;32.94;44.84
70826;SHT31;58446;41.490;22.098;2023-06-22T10:56:59;33.08;45.82
70826;SHT31;58446;41.490;22.098;2023-06-22T10:59:25;33.16;45.60
70826;SHT31;58446;41.490;22.098;2023-06-22T11:01:51;33.29;45.92
70826;SHT31;58446;41.490;22.098;2023-06-22T11:04:17;33.41;43.50
70826;SHT31;58446;41.490;22.098;2023-06-22T11:06:43;33.39;42.60
70826;SHT31;58446;41.490;22.098;2023-06-22T11:09:09;33.41;43.72
70826;SHT31;58446;41.490;22.098;2023-06-22T11:11:35;33.49;42.40
70826;SHT31;58446;41.490;22.098;2023-06-22T11:14:00;33.49;40.95
70826;SHT31;58446;41.490;22.098;2023-06-22T11:16:26;33.29;41.00
70826;SHT31;58446;41.490;22.098;2023-06-22T11:18:52;33.21;40.94
70826;SHT31;58446;41.490;22.098;2023-06-22T11:21:18;33.23;39.64
70826;SHT31;58446;41.490;22.098;2023-06-22T11:23:43;33.23;40.57
70826;SHT31;58446;41.490;22.098;2023-06-22T11:26:09;33.18;41.32
70826;SHT31;58446;41.490;22.098;2023-06-22T11:28:35;33.23;42.23
70826;SHT31;58446;41.490;22.098;2023-06-22T11:31:00;33.36;42.08
70826;SHT31;58446;41.490;22.098;2023-06-22T11:33:27;33.46;43.01
70826;SHT31;58446;41.490;22.098;2023-06-22T11:35:52;33.53;42.25
70826;SHT31;58446;41.490;22.098;2023-06-22T11:38:18;33.59;41.26
70826;SHT31;58446;41.490;22.098;2023-06-22T11:40:43;33.70;41.19
70826;SHT31;58446;41.490;22.098;2023-06-22T11:43:09;33.66;39.62
70826;SHT31;58446;41.490;22.098;2023-06-22T11:45:37;33.64;40.72
70826;SHT31;58446;41.490;22.098;2023-06-22T11:48:03;33.64;40.09
70826;SHT31;58446;41.490;22.098;2023-06-22T11:50:28;33.70;40.55
70826;SHT31;58446;41.490;22.098;2023-06-22T11:52:55;33.72;40.41
70826;SHT31;58446;41.490;22.098;2023-06-22T11:55:21;33.63;39.23
70826;SHT31;58446;41.490;22.098;2023-06-22T11:57:55;33.67;40.50
70826;SHT31;58446;41.490;22.098;2023-06-22T12:00:21;33.74;40.34
70826;SHT31;58446;41.490;22.098;2023-06-22T12:02:52;33.81;40.08
70826;SHT31;58446;41.490;22.098;2023-06-22T12:05:19;33.84;40.40
70826;SHT31;58446;41.490;22.098;2023-06-22T12:07:46;33.89;40.13
70826;SHT31;58446;41.490;22.098;2023-06-22T12:10:12;33.97;38.15
70826;SHT31;58446;41.490;22.098;2023-06-22T12:12:38;33.94;39.27
70826;SHT31;58446;41.490;22.098;2023-06-22T12:15:04;33.96;38.96
70826;SHT31;58446;41.490;22.098;2023-06-22T12:17:30;33.86;37.62
70826;SHT31;58446;41.490;22.098;2023-06-22T12:19:55;33.74;39.59
70826;SHT31;58446;41.490;22.098;2023-06-22T12:22:21;33.66;40.19
70826;SHT31;58446;41.490;22.098;2023-06-22T12:24:47;33.60;39.93
70826;SHT31;58446;41.490;22.098;2023-06-22T12:27:12;33.72;40.34
70826;SHT31;58446;41.490;22.098;2023-06-22T12:29:41;33.80;39.82
70826;SHT31;58446;41.490;22.098;2023-06-22T12:32:07;33.92;39.43
70826;SHT31;58446;41.490;22.098;2023-06-22T12:34:33;33.97;39.25
70826;SHT31;58446;41.490;22.098;2023-06-22T12:36:58;34.01;39.25
70826;SHT31;58446;41.490;22.098;2023-06-22T12:39:24;34.03;39.09
70826;SHT31;58446;41.490;22.098;2023-06-22T12:41:50;34.01;37.96
70826;SHT31;58446;41.490;22.098;2023-06-22T12:44:15;34.08;38.54
70826;SHT31;58446;41.490;22.098;2023-06-22T12:46:41;34.03;37.59
70826;SHT31;58446;41.490;22.098;2023-06-22T12:49:06;34.03;38.62
70826;SHT31;58446;41.490;22.098;2023-06-22T12:51:32;34.08;38.81
70826;SHT31;58446;41.490;22.098;2023-06-22T12:53:59;34.18;39.27
70826;SHT31;58446;41.490;22.098;2023-06-22T12:56:27;34.31;40.32
70826;SHT31;58446;41.490;22.098;2023-06-22T12:58:53;34.33;39.28
70826;SHT31;58446;41.490;22.098;2023-06-22T13:01:19;34.40;38.95
70826;SHT31;58446;41.490;22.098;2023-06-22T13:03:44;34.38;39.23
70826;SHT31;58446;41.490;22.098;2023-06-22T13:06:10;34.35;39.69
70826;SHT31;58446;41.490;22.098;2023-06-22T13:08:36;34.40;39.79
70826;SHT31;58446;41.490;22.098;2023-06-22T13:11:02;34.44;39.42
70826;SHT31;58446;41.490;22.098;2023-06-22T13:13:27;34.44;39.47
70826;SHT31;58446;41.490;22.098;2023-06-22T13:15:53;34.38;39.75
70826;SHT31;58446;41.490;22.098;2023-06-22T13:18:19;34.40;40.71
70826;SHT31;58446;41.490;22.098;2023-06-22T13:20:45;34.42;39.69
70826;SHT31;58446;41.490;22.098;2023-06-22T13:23:11;34.45;40.19
70826;SHT31;58446;41.490;22.098;2023-06-22T13:25:37;34.54;40.16
70826;SHT31;58446;41.490;22.098;2023-06-22T13:28:03;34.52;38.92
70826;SHT31;58446;41.490;22.098;2023-06-22T13:30:31;34.55;39.11
70826;SHT31;58446;41.490;22.098;2023-06-22T13:32:57;34.27;39.65
70826;SHT31;58446;41.490;22.098;2023-06-22T13:35:23;34.13;41.00
70826;SHT31;58446;41.490;22.098;2023-06-22T13:37:48;34.14;40.80
70826;SHT31;58446;41.490;22.098;2023-06-22T13:40:14;34.23;40.42
70826;SHT31;58446;41.490;22.098;2023-06-22T13:42:40;34.35;38.43
70826;SHT31;58446;41.490;22.098;2023-06-22T13:45:06;34.41;39.52
70826;SHT31;58446;41.490;22.098;2023-06-22T13:47:32;34.38;40.02
70826;SHT31;58446;41.490;22.098;2023-06-22T13:49:58;34.18;40.79
70826;SHT31;58446;41.490;22.098;2023-06-22T13:52:24;34.15;40.77
70826;SHT31;58446;41.490;22.098;2023-06-22T13:54:50;34.18;40.38
70826;SHT31;58446;41.490;22.098;2023-06-22T13:57:16;34.21;39.70
70826;SHT31;58446;41.490;22.098;2023-06-22T13:59:41;34.29;39.80
70826;SHT31;58446;41.490;22.098;2023-06-22T14:02:07;34.38;39.52
70826;SHT31;58446;41.490;22.098;2023-06-22T14:04:33;34.41;39.29
70826;SHT31;58446;41.490;22.098;2023-06-22T14:07:01;34.41;39.32
70826;SHT31;58446;41.490;22.098;2023-06-22T14:09:27;34.47;39.06
70826;SHT31;58446;41.490;22.098;2023-06-22T14:11:54;34.48;39.03
70826;SHT31;58446;41.490;22.098;2023-06-22T14:14:21;34.51;38.43
70826;SHT31;58446;41.490;22.098;2023-06-22T14:16:47;34.56;38.93
70826;SHT31;58446;41.490;22.098;2023-06-22T14:19:17;34.62;38.75
70826;SHT31;58446;41.490;22.098;2023-06-22T14:21:43;34.65;38.61
70826;SHT31;58446;41.490;22.098;2023-06-22T14:24:12;34.64;38.33
70826;SHT31;58446;41.490;22.098;2023-06-22T14:26:37;34.68;38.45
70826;SHT31;58446;41.490;22.098;2023-06-22T14:29:03;34.66;38.58
70826;SHT31;58446;41.490;22.098;2023-06-22T14:31:29;34.72;38.91
70826;SHT31;58446;41.490;22.098;2023-06-22T14:33:54;34.76;37.84
70826;SHT31;58446;41.490;22.098;2023-06-22T14:36:20;34.79;37.97
70826;SHT31;58446;41.490;22.098;2023-06-22T14:38:46;34.79;37.85
70826;SHT31;58446;41.490;22.098;2023-06-22T14:41:11;34.78;37.49
70826;SHT31;58446;41.490;22.098;2023-06-22T14:43:37;34.75;36.82
70826;SHT31;58446;41.490;22.098;2023-06-22T14:46:03;34.65;37.07
70826;SHT31;58446;41.490;22.098;2023-06-22T14:48:29;34.66;36.61
70826;SHT31;58446;41.490;22.098;2023-06-22T14:50:54;34.65;36.87
70826;SHT31;58446;41.490;22.098;2023-06-22T14:53:20;34.68;37.28
70826;SHT31;58446;41.490;22.098;2023-06-22T14:55:46;34.68;37.58
70826;SHT31;58446;41.490;22.098;2023-06-22T14:58:11;34.69;37.61
70826;SHT31;58446;41.490;22.098;2023-06-22T15:00:37;34.61;37.31
70826;SHT31;58446;41.490;22.098;2023-06-22T15:03:04;34.58;37.51
70826;SHT31;58446;41.490;22.098;2023-06-22T15:05:32;34.54;36.61
70826;SHT31;58446;41.490;22.098;2023-06-22T15:07:57;34.56;37.09
70826;SHT31;58446;41.490;22.098;2023-06-22T15:10:24;34.56;36.75
70826;SHT31;58446;41.490;22.098;2023-06-22T15:12:49;34.52;36.39
70826;SHT31;58446;41.490;22.098;2023-06-22T15:15:15;34.49;35.26
70826;SHT31;58446;41.490;22.098;2023-06-22T15:17:41;34.52;35.38
70826;SHT31;58446;41.490;22.098;2023-06-22T15:20:07;34.51;35.16